Time;durP1;ratioP1;P1;durP2;ratioP2;P2;SDS_P1;SDS_P2;PMS_P1;PMS_P2;Temp;Humidity;BMP_temperature;BMP_pressure;BME280_temperature;BME280_humidity;BME280_pressure;Samples;Min_cycle;Max_cycle;Signal;HPM_P1;HPM_P2
2022/06/18 00:01:55;;;;;;;3.47;1.50;;;;;;;;;;5017915;28;20033;-75
2022/06/18 00:04:22;;;;;;;2.78;1.40;;;;;;;;;;5018169;28;20028;-75
2022/06/18 00:06:54;;;;;;;2.00;1.42;;;;;;;;;;5018528;28;20037;-77
2022/06/18 00:09:22;;;;;;;3.70;1.50;;;;;;;;;;5018903;28;20029;-76
2022/06/18 00:14:33;;;;;;;3.47;1.45;;;;;;;;;;5018702;28;20395;-76
2022/06/18 00:17:00;;;;;;;3.75;1.40;;;;;;;;;;5018774;28;20022;-76
2022/06/18 00:19:25;;;;;;;2.72;1.48;;;;;;;;;;5019102;28;20021;-75
2022/06/18 00:21:51;;;;;;;2.57;1.30;;;;;;;;;;5018523;28;20109;-76
2022/06/18 00:24:19;;;;;;;3.95;1.40;;;;;;;;;;5018878;28;20354;-75
2022/06/18 00:26:45;;;;;;;5.28;1.50;;;;;;;;;;5017912;28;20029;-76
2022/06/18 00:29:13;;;;;;;2.60;1.60;;;;;;;;;;5019256;28;20113;-75
2022/06/18 00:31:39;;;;;;;6.07;1.67;;;;;;;;;;5017853;28;20022;-76
2022/06/18 00:34:05;;;;;;;4.78;1.50;;;;;;;;;;5020022;28;20109;-76
2022/06/18 00:36:31;;;;;;;7.10;1.60;;;;;;;;;;5020242;28;20022;-76
2022/06/18 00:38:56;;;;;;;2.58;1.50;;;;;;;;;;5020190;28;20026;-76
2022/06/18 00:41:25;;;;;;;3.58;1.80;;;;;;;;;;5019791;28;20072;-76
2022/06/18 00:44:09;;;;;;;3.30;1.55;;;;;;;;;;5018647;28;20026;-76
2022/06/18 00:46:49;;;;;;;3.22;1.50;;;;;;;;;;5019647;28;20030;-76
2022/06/18 00:49:24;;;;;;;3.22;1.60;;;;;;;;;;5019672;28;20442;-75
2022/06/18 00:52:15;;;;;;;4.97;1.60;;;;;;;;;;5017202;28;20391;-75
2022/06/18 00:54:48;;;;;;;4.47;1.40;;;;;;;;;;5019285;28;20026;-76
2022/06/18 00:57:23;;;;;;;2.63;1.30;;;;;;;;;;5019520;28;20014;-75
2022/06/18 01:00:05;;;;;;;2.55;1.63;;;;;;;;;;5019781;28;20033;-76
2022/06/18 01:02:37;;;;;;;2.17;1.20;;;;;;;;;;5019540;28;20030;-75
2022/06/18 01:05:16;;;;;;;4.45;1.48;;;;;;;;;;5019318;28;20057;-75
2022/06/18 01:07:42;;;;;;;2.10;1.48;;;;;;;;;;5020699;28;20069;-75
2022/06/18 01:10:17;;;;;;;2.45;1.40;;;;;;;;;;5019646;28;20029;-76
2022/06/18 01:12:42;;;;;;;2.78;1.55;;;;;;;;;;5019938;28;20030;-77
2022/06/18 01:15:11;;;;;;;1.88;1.30;;;;;;;;;;5021690;28;20037;-75
2022/06/18 01:17:38;;;;;;;2.60;1.40;;;;;;;;;;5025454;28;20100;-76
2022/06/18 01:20:07;;;;;;;1.90;1.50;;;;;;;;;;5024930;28;20032;-76
2022/06/18 01:22:55;;;;;;;2.40;1.58;;;;;;;;;;5025032;28;20109;-75
2022/06/18 01:25:22;;;;;;;3.63;1.38;;;;;;;;;;5024108;28;20022;-76
2022/06/18 01:27:48;;;;;;;5.97;1.55;;;;;;;;;;5022881;28;20119;-75
2022/06/18 01:30:17;;;;;;;1.88;1.50;;;;;;;;;;5024726;28;20041;-76
2022/06/18 01:32:45;;;;;;;2.58;1.40;;;;;;;;;;5024314;28;20030;-75
2022/06/18 01:35:11;;;;;;;4.00;1.55;;;;;;;;;;5024755;28;20026;-76
2022/06/18 01:37:37;;;;;;;5.28;1.63;;;;;;;;;;5024575;28;20030;-74
2022/06/18 01:40:04;;;;;;;2.50;1.60;;;;;;;;;;5024382;28;20053;-76
2022/06/18 01:42:39;;;;;;;3.92;1.50;;;;;;;;;;5024281;28;20029;-74
2022/06/18 01:45:07;;;;;;;1.58;1.40;;;;;;;;;;5024322;28;20025;-76
2022/06/18 01:47:39;;;;;;;2.13;1.58;;;;;;;;;;5023209;28;20033;-75
2022/06/18 01:50:22;;;;;;;2.90;1.27;;;;;;;;;;5022745;28;20022;-75
2022/06/18 01:52:52;;;;;;;3.65;1.75;;;;;;;;;;5023170;28;20032;-76
2022/06/18 01:55:24;;;;;;;4.72;1.73;;;;;;;;;;5019466;28;20044;-77
2022/06/18 01:57:54;;;;;;;3.00;1.80;;;;;;;;;;5020992;28;20382;-75
2022/06/18 02:00:27;;;;;;;3.20;1.50;;;;;;;;;;5020717;28;20080;-75
2022/06/18 02:02:54;;;;;;;3.72;1.67;;;;;;;;;;5023076;28;20018;-76
2022/06/18 02:05:20;;;;;;;7.03;1.50;;;;;;;;;;5023594;28;20030;-76
2022/06/18 02:07:47;;;;;;;2.67;1.70;;;;;;;;;;5023526;28;20022;-76
2022/06/18 02:10:27;;;;;;;4.75;1.63;;;;;;;;;;5023166;28;20033;-75
2022/06/18 02:12:55;;;;;;;2.72;1.63;;;;;;;;;;5022211;28;20021;-76
2022/06/18 02:15:30;;;;;;;2.47;1.60;;;;;;;;;;5023609;28;20080;-75
2022/06/18 02:17:58;;;;;;;3.50;1.60;;;;;;;;;;5021924;28;20053;-73
2022/06/18 02:20:27;;;;;;;2.22;1.52;;;;;;;;;;5018579;28;20407;-74
2022/06/18 02:22:54;;;;;;;4.65;1.70;;;;;;;;;;5022878;28;20084;-76
2022/06/18 02:25:25;;;;;;;3.05;1.80;;;;;;;;;;5023652;28;20021;-76
2022/06/18 02:27:56;;;;;;;3.95;2.05;;;;;;;;;;5022879;28;20120;-76
2022/06/18 02:30:24;;;;;;;3.78;1.50;;;;;;;;;;5023333;28;20026;-76
2022/06/18 02:33:01;;;;;;;4.72;1.70;;;;;;;;;;5022829;28;20026;-76
2022/06/18 02:35:29;;;;;;;3.42;1.70;;;;;;;;;;5023807;28;20081;-76
2022/06/18 02:37:55;;;;;;;2.88;1.67;;;;;;;;;;5021993;28;20034;-76
2022/06/18 02:40:25;;;;;;;2.97;1.75;;;;;;;;;;5023505;28;20021;-75
2022/06/18 02:42:53;;;;;;;2.63;1.60;;;;;;;;;;5023555;28;20061;-75
2022/06/18 02:45:21;;;;;;;6.32;1.63;;;;;;;;;;5023176;28;20034;-75
2022/06/18 02:47:46;;;;;;;3.53;1.95;;;;;;;;;;5021182;28;20029;-75
2022/06/18 02:50:15;;;;;;;4.93;1.80;;;;;;;;;;5021577;28;20029;-75
2022/06/18 02:52:46;;;;;;;1.85;1.65;;;;;;;;;;5021491;28;20018;-76
2022/06/18 02:55:26;;;;;;;2.47;1.58;;;;;;;;;;5022426;28;20034;-76
2022/06/18 02:57:56;;;;;;;4.35;1.60;;;;;;;;;;5020671;28;20468;-75
2022/06/18 03:00:22;;;;;;;1.85;1.40;;;;;;;;;;5021918;28;20022;-75
2022/06/18 03:02:48;;;;;;;2.67;1.77;;;;;;;;;;5020449;28;20072;-74
2022/06/18 03:05:20;;;;;;;5.80;1.70;;;;;;;;;;5021930;28;20025;-76
2022/06/18 03:07:45;;;;;;;10.60;1.77;;;;;;;;;;5021014;28;20022;-76
2022/06/18 03:12:54;;;;;;;3.33;1.60;;;;;;;;;;5020273;28;20037;-74
2022/06/18 03:15:19;;;;;;;4.00;1.70;;;;;;;;;;5019534;28;20030;-75
2022/06/18 03:17:44;;;;;;;3.22;1.75;;;;;;;;;;5019563;28;20266;-75
2022/06/18 03:20:16;;;;;;;4.63;1.70;;;;;;;;;;5019337;28;20040;-75
2022/06/18 03:22:42;;;;;;;5.00;1.70;;;;;;;;;;5018427;28;20271;-75
2022/06/18 03:25:07;;;;;;;4.05;1.50;;;;;;;;;;5018478;28;20077;-75
2022/06/18 03:27:33;;;;;;;2.55;1.80;;;;;;;;;;5018957;28;20018;-75
2022/06/18 03:29:58;;;;;;;3.10;1.60;;;;;;;;;;5018537;28;20033;-75
2022/06/18 03:32:23;;;;;;;2.47;1.67;;;;;;;;;;5017381;28;20026;-75
2022/06/18 03:34:48;;;;;;;1.50;1.40;;;;;;;;;;5017638;28;20266;-77
2022/06/18 03:37:14;;;;;;;3.23;1.50;;;;;;;;;;5017862;28;20025;-75
2022/06/18 03:39:39;;;;;;;2.60;1.73;;;;;;;;;;5017981;28;20267;-75
2022/06/18 03:42:04;;;;;;;5.03;1.57;;;;;;;;;;5017243;28;20262;-75
2022/06/18 03:44:30;;;;;;;3.47;1.65;;;;;;;;;;5016372;28;20628;-75
2022/06/18 03:46:56;;;;;;;3.15;1.65;;;;;;;;;;5017400;28;20570;-75
2022/06/18 03:49:30;;;;;;;4.20;1.70;;;;;;;;;;5016320;28;20022;-74
2022/06/18 03:51:55;;;;;;;;;;;;;;;;;;5018578;28;20049;-74
2022/06/18 03:54:21;;;;;;;2.28;1.50;;;;;;;;;;5017598;28;19909;-75
2022/06/18 03:56:47;;;;;;;3.17;1.70;;;;;;;;;;5018299;28;20026;-75
2022/06/18 03:59:13;;;;;;;3.05;1.70;;;;;;;;;;5017670;28;20384;-75
2022/06/18 04:01:40;;;;;;;4.72;1.73;;;;;;;;;;5017707;28;20033;-77
2022/06/18 04:04:10;;;;;;;2.60;1.48;;;;;;;;;;5016831;28;20026;-76
2022/06/18 04:06:35;;;;;;;2.85;1.80;;;;;;;;;;5017275;28;20116;-75
2022/06/18 04:09:01;;;;;;;3.38;1.80;;;;;;;;;;5017091;28;20164;-76
2022/06/18 04:11:26;;;;;;;1.88;1.40;;;;;;;;;;5018280;28;20021;-75
2022/06/18 04:13:51;;;;;;;2.38;1.60;;;;;;;;;;5017458;28;20032;-74
2022/06/18 04:16:17;;;;;;;2.70;1.73;;;;;;;;;;5017726;28;20018;-75
2022/06/18 04:18:43;;;;;;;4.57;1.55;;;;;;;;;;5018030;28;20313;-76
2022/06/18 04:21:08;;;;;;;4.80;1.58;;;;;;;;;;5015699;28;20030;-75
2022/06/18 04:23:34;;;;;;;1.63;1.38;;;;;;;;;;5017356;28;20105;-76
2022/06/18 04:25:59;;;;;;;1.63;1.48;;;;;;;;;;5017501;28;20057;-75
2022/06/18 04:28:25;;;;;;;3.97;1.73;;;;;;;;;;5018406;28;20026;-76
2022/06/18 04:30:50;;;;;;;3.17;1.50;;;;;;;;;;5019569;28;20032;-75
2022/06/18 04:33:15;;;;;;;2.25;1.50;;;;;;;;;;5019090;28;20068;-75
2022/06/18 04:35:41;;;;;;;2.47;1.67;;;;;;;;;;5017174;28;20032;-73
2022/06/18 04:38:11;;;;;;;2.15;1.60;;;;;;;;;;5016516;28;20089;-73
2022/06/18 04:40:36;;;;;;;2.58;1.50;;;;;;;;;;5014043;28;20546;-74
2022/06/18 04:43:04;;;;;;;5.07;1.77;;;;;;;;;;5015456;28;20056;-74
2022/06/18 04:45:29;;;;;;;1.45;1.35;;;;;;;;;;5015308;28;20270;-74
2022/06/18 04:47:55;;;;;;;3.05;1.52;;;;;;;;;;5016066;28;20026;-75
2022/06/18 04:50:24;;;;;;;2.17;1.40;;;;;;;;;;5015144;28;20030;-74
2022/06/18 04:52:49;;;;;;;1.90;1.50;;;;;;;;;;5016267;28;20034;-74
2022/06/18 04:55:15;;;;;;;3.33;1.60;;;;;;;;;;5016172;28;20044;-74
2022/06/18 04:57:40;;;;;;;2.40;1.40;;;;;;;;;;5016354;28;20291;-75
2022/06/18 05:00:07;;;;;;;7.78;1.50;;;;;;;;;;5016140;28;20056;-75
2022/06/18 05:02:34;;;;;;;3.95;1.40;;;;;;;;;;5016205;28;20029;-74
2022/06/18 05:04:59;;;;;;;6.22;1.50;;;;;;;;;;5018037;28;20084;-74
2022/06/18 05:07:25;;;;;;;2.13;1.40;;;;;;;;;;5018236;28;20030;-74
2022/06/18 05:09:50;;;;;;;4.15;1.38;;;;;;;;;;5017524;28;20029;-75
2022/06/18 05:12:16;;;;;;;2.63;1.50;;;;;;;;;;5018921;28;20105;-75
2022/06/18 05:14:41;;;;;;;5.80;1.60;;;;;;;;;;5018922;28;20033;-75
2022/06/18 05:17:11;;;;;;;3.03;1.40;;;;;;;;;;5019260;28;20494;-74
2022/06/18 05:19:37;;;;;;;2.90;1.48;;;;;;;;;;5017398;28;20034;-75
2022/06/18 05:22:02;;;;;;;3.42;1.45;;;;;;;;;;5017288;28;20032;-75
2022/06/18 05:24:28;;;;;;;3.45;1.50;;;;;;;;;;5016808;28;20029;-74
2022/06/18 05:26:55;;;;;;;2.42;1.35;;;;;;;;;;5016745;28;20041;-75
2022/06/18 05:29:21;;;;;;;2.38;1.30;;;;;;;;;;5017465;28;20053;-75
2022/06/18 05:31:47;;;;;;;4.07;1.50;;;;;;;;;;5016679;28;20041;-75
2022/06/18 05:34:12;;;;;;;4.40;1.60;;;;;;;;;;5017443;28;20026;-75
2022/06/18 05:36:38;;;;;;;1.92;1.25;;;;;;;;;;5017586;28;20064;-74
2022/06/18 05:39:04;;;;;;;3.83;1.30;;;;;;;;;;5016520;28;20028;-74
2022/06/18 05:41:30;;;;;;;4.78;1.50;;;;;;;;;;5018121;28;20029;-74
2022/06/18 05:43:55;;;;;;;2.35;1.10;;;;;;;;;;5016686;28;20506;-75
2022/06/18 05:46:21;;;;;;;2.28;1.30;;;;;;;;;;5017068;28;20434;-73
2022/06/18 05:48:46;;;;;;;1.17;1.07;;;;;;;;;;5017748;28;20026;-74
2022/06/18 05:51:11;;;;;;;4.57;1.27;;;;;;;;;;5017143;28;20322;-73
2022/06/18 05:53:36;;;;;;;5.00;1.33;;;;;;;;;;5019290;28;20267;-75
2022/06/18 05:56:02;;;;;;;1.52;1.25;;;;;;;;;;5021237;28;20255;-74
2022/06/18 05:58:28;;;;;;;3.75;1.50;;;;;;;;;;5020188;28;20044;-75
2022/06/18 06:00:53;;;;;;;1.52;1.20;;;;;;;;;;5021615;28;20018;-74
2022/06/18 06:03:18;;;;;;;1.50;1.25;;;;;;;;;;5024289;28;20034;-75
2022/06/18 06:05:44;;;;;;;3.83;1.40;;;;;;;;;;5024748;28;20042;-75
2022/06/18 06:08:11;;;;;;;3.42;1.33;;;;;;;;;;5023082;28;20026;-75
2022/06/18 06:13:22;;;;;;;;;;;;;;;;;;5021028;28;20053;-74
2022/06/18 06:15:48;;;;;;;4.03;1.30;;;;;;;;;;5021378;28;19939;-75
2022/06/18 06:18:15;;;;;;;5.80;1.23;;;;;;;;;;5020322;28;20030;-74
2022/06/18 06:20:44;;;;;;;2.85;1.40;;;;;;;;;;5019152;28;20423;-74
2022/06/18 06:23:10;;;;;;;2.15;1.38;;;;;;;;;;5020766;28;20021;-74
2022/06/18 06:25:36;;;;;;;3.00;1.50;;;;;;;;;;5021241;28;20070;-75
2022/06/18 06:28:03;;;;;;;1.67;1.27;;;;;;;;;;5021279;28;20029;-75
2022/06/18 06:30:28;;;;;;;4.40;1.27;;;;;;;;;;5020664;28;20057;-74
2022/06/18 06:32:54;;;;;;;3.30;1.30;;;;;;;;;;5018589;28;20022;-75
2022/06/18 06:35:20;;;;;;;1.70;1.15;;;;;;;;;;5018714;28;20026;-74
2022/06/18 06:37:45;;;;;;;2.38;1.40;;;;;;;;;;5017942;28;20025;-74
2022/06/18 06:40:13;;;;;;;2.10;1.23;;;;;;;;;;5018272;28;20090;-76
2022/06/18 06:42:50;;;;;;;1.70;1.20;;;;;;;;;;5018976;28;20440;-75
2022/06/18 06:45:21;;;;;;;2.13;1.20;;;;;;;;;;5019239;28;20045;-75
2022/06/18 06:47:46;;;;;;;5.93;1.40;;;;;;;;;;5017094;28;20036;-75
2022/06/18 06:50:14;;;;;;;3.83;1.42;;;;;;;;;;5018924;28;20025;-75
2022/06/18 06:52:40;;;;;;;2.33;1.20;;;;;;;;;;5019629;28;20040;-75
2022/06/18 06:57:55;;;;;;;2.15;1.20;;;;;;;;;;5020567;28;20025;-75
2022/06/18 07:00:21;;;;;;;5.27;1.37;;;;;;;;;;5019961;28;20026;-76
2022/06/18 07:02:46;;;;;;;3.23;1.27;;;;;;;;;;5019700;28;20406;-75
2022/06/18 07:05:13;;;;;;;8.27;1.47;;;;;;;;;;5019203;28;20295;-75
2022/06/18 07:07:38;;;;;;;1.50;1.20;;;;;;;;;;5020908;28;20030;-76
2022/06/18 07:10:04;;;;;;;6.13;1.20;;;;;;;;;;5019711;28;20116;-74
2022/06/18 07:12:29;;;;;;;9.65;1.20;;;;;;;;;;5018207;28;20259;-75
2022/06/18 07:14:55;;;;;;;4.03;1.50;;;;;;;;;;5020395;28;20038;-75
2022/06/18 07:17:21;;;;;;;4.23;1.40;;;;;;;;;;5019481;28;20048;-74
2022/06/18 07:19:47;;;;;;;5.85;1.63;;;;;;;;;;5021115;28;20026;-74
2022/06/18 07:22:13;;;;;;;8.07;1.57;;;;;;;;;;5021719;28;20033;-75
2022/06/18 07:24:39;;;;;;;5.40;1.10;;;;;;;;;;5020615;28;20632;-76
2022/06/18 07:27:04;;;;;;;3.55;1.27;;;;;;;;;;5020255;28;20022;-75
2022/06/18 07:29:30;;;;;;;2.15;1.13;;;;;;;;;;5019373;28;20475;-75
2022/06/18 07:32:08;;;;;;;1.55;1.10;;;;;;;;;;5019942;28;20030;-75
2022/06/18 07:34:33;;;;;;;1.35;1.00;;;;;;;;;;5021124;28;20041;-75
2022/06/18 07:36:58;;;;;;;4.40;1.20;;;;;;;;;;5020257;28;20475;-75
2022/06/18 07:39:23;;;;;;;1.13;1.00;;;;;;;;;;5019736;28;20309;-75
2022/06/18 07:41:55;;;;;;;4.57;1.20;;;;;;;;;;5019663;28;20105;-75
2022/06/18 07:44:21;;;;;;;9.77;1.30;;;;;;;;;;5018400;28;20037;-75
2022/06/18 07:46:47;;;;;;;4.32;1.00;;;;;;;;;;5018956;28;20487;-75
2022/06/18 07:49:15;;;;;;;1.20;1.00;;;;;;;;;;5018475;28;20032;-75
2022/06/18 07:51:41;;;;;;;4.90;0.90;;;;;;;;;;5016379;28;20029;-75
2022/06/18 07:54:06;;;;;;;1.45;0.90;;;;;;;;;;5015297;28;20022;-75
2022/06/18 07:56:32;;;;;;;1.80;1.00;;;;;;;;;;5016820;28;20022;-74
2022/06/18 07:58:58;;;;;;;4.18;1.10;;;;;;;;;;5015490;28;20258;-74
2022/06/18 08:01:23;;;;;;;6.20;1.17;;;;;;;;;;5017260;28;20084;-74
2022/06/18 08:03:49;;;;;;;1.08;0.90;;;;;;;;;;5017270;28;20026;-75
2022/06/18 08:06:14;;;;;;;2.38;0.90;;;;;;;;;;5016088;28;20072;-74
2022/06/18 08:08:39;;;;;;;1.83;0.93;;;;;;;;;;5016383;28;20110;-74
2022/06/18 08:11:10;;;;;;;4.97;1.00;;;;;;;;;;5016625;28;20317;-74
2022/06/18 08:13:35;;;;;;;5.75;1.10;;;;;;;;;;5015686;28;20042;-74
2022/06/18 08:16:00;;;;;;;2.97;0.90;;;;;;;;;;5016128;28;20217;-75
2022/06/18 08:18:26;;;;;;;1.38;0.90;;;;;;;;;;5015414;28;20072;-75
2022/06/18 08:20:51;;;;;;;1.77;1.08;;;;;;;;;;5015686;28;20030;-75
2022/06/18 08:23:16;;;;;;;5.20;1.20;;;;;;;;;;5016674;28;20383;-74
2022/06/18 08:25:43;;;;;;;4.82;0.95;;;;;;;;;;5015995;28;20480;-74
2022/06/18 08:28:10;;;;;;;3.40;1.10;;;;;;;;;;5015347;28;20033;-75
2022/06/18 08:30:35;;;;;;;7.40;1.00;;;;;;;;;;5014151;28;20036;-75
2022/06/18 08:33:01;;;;;;;4.25;0.95;;;;;;;;;;5015511;28;20077;-76
2022/06/18 08:35:26;;;;;;;1.20;1.10;;;;;;;;;;5015848;28;20392;-74
2022/06/18 08:37:52;;;;;;;3.88;1.00;;;;;;;;;;5016196;28;20262;-75
2022/06/18 08:40:36;;;;;;;2.58;1.08;;;;;;;;;;5015868;28;20030;-75
2022/06/18 08:43:29;;;;;;;0.95;0.77;;;;;;;;;;5015539;28;20022;-74
2022/06/18 08:46:24;;;;;;;3.50;1.00;;;;;;;;;;5015650;28;20046;-74
2022/06/18 08:49:17;;;;;;;0.95;0.85;;;;;;;;;;5016374;28;20072;-74
2022/06/18 08:52:15;;;;;;;6.45;1.30;;;;;;;;;;5015801;28;20033;-75
2022/06/18 08:55:11;;;;;;;1.70;1.00;;;;;;;;;;5015901;28;20038;-75
2022/06/18 08:58:05;;;;;;;1.63;1.00;;;;;;;;;;5018724;28;20113;-75
2022/06/18 09:00:45;;;;;;;2.70;1.13;;;;;;;;;;5019383;28;20125;-76
2022/06/18 09:03:48;;;;;;;2.28;1.00;;;;;;;;;;5018027;28;20506;-76
2022/06/18 09:06:30;;;;;;;4.60;0.90;;;;;;;;;;5018243;28;20128;-75
2022/06/18 09:09:36;;;;;;;1.92;0.90;;;;;;;;;;5020054;28;20511;-76
2022/06/18 09:12:17;;;;;;;1.70;1.00;;;;;;;;;;5019395;28;20117;-74
2022/06/18 09:14:58;;;;;;;3.05;1.08;;;;;;;;;;5019952;28;20049;-75
2022/06/18 09:17:30;;;;;;;5.85;0.90;;;;;;;;;;5018363;28;20029;-76
2022/06/18 09:20:02;;;;;;;1.13;1.02;;;;;;;;;;5019111;28;20378;-73
2022/06/18 09:22:30;;;;;;;1.88;1.08;;;;;;;;;;5018238;28;20038;-74
2022/06/18 09:25:03;;;;;;;2.40;1.13;;;;;;;;;;5017476;28;20026;-75
2022/06/18 09:27:53;;;;;;;1.63;1.10;;;;;;;;;;5017620;28;20029;-75
2022/06/18 09:30:35;;;;;;;2.35;0.90;;;;;;;;;;5016428;28;20113;-77
2022/06/18 09:33:26;;;;;;;3.50;1.10;;;;;;;;;;5015022;28;20041;-74
2022/06/18 09:35:55;;;;;;;2.30;1.10;;;;;;;;;;5015530;28;20025;-75
2022/06/18 09:38:28;;;;;;;3.70;1.00;;;;;;;;;;5019111;28;20459;-75
2022/06/18 09:41:00;;;;;;;1.83;1.10;;;;;;;;;;5018444;28;20422;-74
2022/06/18 09:43:28;;;;;;;4.10;1.30;;;;;;;;;;5019518;28;20029;-73
2022/06/18 09:45:58;;;;;;;1.63;1.10;;;;;;;;;;5017559;28;20061;-74
2022/06/18 09:48:24;;;;;;;1.75;0.90;;;;;;;;;;5017654;28;20052;-73
2022/06/18 09:50:53;;;;;;;4.47;1.30;;;;;;;;;;5018793;28;20505;-74
2022/06/18 09:53:26;;;;;;;3.28;1.00;;;;;;;;;;5018705;28;20422;-75
2022/06/18 09:55:55;;;;;;;4.95;1.10;;;;;;;;;;5018737;28;20431;-74
2022/06/18 09:58:26;;;;;;;1.63;1.05;;;;;;;;;;5018551;28;20138;-74
2022/06/18 10:00:54;;;;;;;4.25;1.15;;;;;;;;;;5017437;28;20116;-74
2022/06/18 10:08:56;;;;;;;2.83;1.00;;;;;;;;;;5019381;28;20084;-74
2022/06/18 10:11:23;;;;;;;5.88;1.35;;;;;;;;;;5018798;28;20084;-75
2022/06/18 10:13:58;;;;;;;2.60;1.10;;;;;;;;;;5018309;28;20041;-74
2022/06/18 10:16:50;;;;;;;3.33;1.23;;;;;;;;;;5019243;28;20053;-75
2022/06/18 10:19:34;;;;;;;1.90;1.10;;;;;;;;;;5017636;28;20056;-75
2022/06/18 10:22:03;;;;;;;;;;;;;;;;;;5019966;28;20072;-75
2022/06/18 10:24:39;;;;;;;3.88;1.08;;;;;;;;;;5020601;28;19914;-75
2022/06/18 10:27:20;;;;;;;1.20;0.93;;;;;;;;;;5019504;28;20080;-74
2022/06/18 10:30:03;;;;;;;2.28;1.10;;;;;;;;;;5019338;28;20034;-75
2022/06/18 10:32:59;;;;;;;4.03;1.20;;;;;;;;;;5016395;28;20124;-76
2022/06/18 10:35:51;;;;;;;1.98;1.20;;;;;;;;;;5018574;28;20034;-75
2022/06/18 10:38:55;;;;;;;1.90;1.00;;;;;;;;;;5018474;28;20475;-74
2022/06/18 10:41:28;;;;;;;3.30;1.45;;;;;;;;;;5018057;28;20068;-75
2022/06/18 10:44:38;;;;;;;4.15;1.45;;;;;;;;;;5019332;28;20398;-76
2022/06/18 10:47:08;;;;;;;1.55;1.10;;;;;;;;;;5009749;28;20462;-75
2022/06/18 10:49:34;;;;;;;2.92;1.10;;;;;;;;;;5018526;28;20048;-75
2022/06/18 10:52:00;;;;;;;1.80;0.95;;;;;;;;;;5018009;28;20029;-75
2022/06/18 10:54:32;;;;;;;8.18;1.27;;;;;;;;;;5018198;28;20038;-75
2022/06/18 10:56:58;;;;;;;2.42;1.13;;;;;;;;;;5018587;28;20113;-75
2022/06/18 10:59:32;;;;;;;8.40;1.20;;;;;;;;;;5018567;28;20059;-73
2022/06/18 11:02:12;;;;;;;7.68;1.20;;;;;;;;;;5018125;28;20025;-75
2022/06/18 11:04:41;;;;;;;3.95;1.10;;;;;;;;;;5016548;28;20053;-76
2022/06/18 11:07:09;;;;;;;5.25;1.20;;;;;;;;;;5017748;28;20072;-74
2022/06/18 11:09:43;;;;;;;5.38;1.48;;;;;;;;;;5017655;28;20069;-76
2022/06/18 11:12:29;;;;;;;5.90;1.55;;;;;;;;;;5018464;28;20052;-76
2022/06/18 11:14:55;;;;;;;5.32;1.40;;;;;;;;;;5017706;28;20022;-76
2022/06/18 11:17:31;;;;;;;10.18;1.60;;;;;;;;;;5017362;28;20021;-76
2022/06/18 11:20:17;;;;;;;5.40;1.40;;;;;;;;;;5018341;28;20461;-75
2022/06/18 11:22:44;;;;;;;2.85;1.40;;;;;;;;;;5017649;28;20495;-75
2022/06/18 11:25:24;;;;;;;4.50;1.38;;;;;;;;;;5017595;28;20068;-75
2022/06/18 11:27:50;;;;;;;4.82;1.48;;;;;;;;;;5017538;28;20364;-76
2022/06/18 11:30:29;;;;;;;7.78;1.63;;;;;;;;;;5016360;28;20025;-75
2022/06/18 11:32:54;;;;;;;4.68;1.70;;;;;;;;;;5017065;28;20022;-76
2022/06/18 11:35:25;;;;;;;9.33;1.77;;;;;;;;;;5017822;28;20021;-74
2022/06/18 11:37:56;;;;;;;6.55;1.55;;;;;;;;;;5018053;28;20025;-73
2022/06/18 11:40:22;;;;;;;8.35;1.60;;;;;;;;;;5017747;28;20033;-75
2022/06/18 11:42:59;;;;;;;6.80;1.52;;;;;;;;;;5017241;28;20026;-75
2022/06/18 11:45:39;;;;;;;6.95;1.40;;;;;;;;;;5018291;28;20490;-75
2022/06/18 11:48:38;;;;;;;4.18;1.45;;;;;;;;;;5017917;28;20033;-75
2022/06/18 11:51:20;;;;;;;3.88;1.50;;;;;;;;;;5016460;28;20029;-75
2022/06/18 11:54:13;;;;;;;8.80;1.52;;;;;;;;;;5017113;28;20021;-75
2022/06/18 11:56:47;;;;;;;15.60;1.90;;;;;;;;;;5017539;28;20026;-75
2022/06/18 11:59:40;;;;;;;10.90;1.88;;;;;;;;;;5016334;28;20271;-75
2022/06/18 12:02:16;;;;;;;8.80;1.98;;;;;;;;;;5015808;28;20510;-76
2022/06/18 12:05:00;;;;;;;2.28;1.38;;;;;;;;;;5016364;28;20042;-75
2022/06/18 12:07:59;;;;;;;3.75;1.60;;;;;;;;;;5016312;28;20026;-75
2022/06/18 12:10:44;;;;;;;10.32;1.70;;;;;;;;;;5012955;28;20045;-77
2022/06/18 12:13:18;;;;;;;8.73;1.50;;;;;;;;;;5016197;28;20026;-74
2022/06/18 12:16:05;;;;;;;9.95;1.85;;;;;;;;;;5017168;28;20061;-77
2022/06/18 12:19:10;;;;;;;10.32;1.98;;;;;;;;;;5015314;28;20075;-74
2022/06/18 12:21:51;;;;;;;5.32;1.65;;;;;;;;;;5016574;28;20395;-75
2022/06/18 12:24:38;;;;;;;9.70;1.60;;;;;;;;;;5014894;28;20072;-74
2022/06/18 12:27:21;;;;;;;4.13;1.60;;;;;;;;;;5015868;28;20022;-75
2022/06/18 12:30:03;;;;;;;3.92;1.52;;;;;;;;;;5017244;28;20026;-76
2022/06/18 12:32:45;;;;;;;9.35;1.70;;;;;;;;;;5016052;28;20117;-74
2022/06/18 12:35:36;;;;;;;5.60;1.73;;;;;;;;;;5017630;28;20034;-76
2022/06/18 12:38:14;;;;;;;6.25;1.60;;;;;;;;;;5017500;28;20026;-75
2022/06/18 12:40:49;;;;;;;11.32;1.63;;;;;;;;;;5017237;28;20483;-74
2022/06/18 12:43:19;;;;;;;10.32;1.70;;;;;;;;;;5016679;28;20060;-74
2022/06/18 12:46:03;;;;;;;15.65;2.45;;;;;;;;;;5017669;28;20118;-76
2022/06/18 12:48:53;;;;;;;9.57;1.80;;;;;;;;;;5017619;28;20112;-76
2022/06/18 12:51:42;;;;;;;11.23;1.80;;;;;;;;;;5017936;28;20033;-75
2022/06/18 12:54:31;;;;;;;6.43;1.90;;;;;;;;;;5017638;28;20431;-75
2022/06/18 12:57:16;;;;;;;9.80;2.20;;;;;;;;;;5017679;28;20025;-75
2022/06/18 13:00:03;;;;;;;8.75;1.80;;;;;;;;;;5017394;28;20391;-75
2022/06/18 13:02:50;;;;;;;9.57;2.00;;;;;;;;;;5018449;28;20029;-76
2022/06/18 13:05:27;;;;;;;8.38;1.90;;;;;;;;;;5017442;28;20041;-75
2022/06/18 13:08:08;;;;;;;8.60;1.80;;;;;;;;;;5016792;28;20061;-76
2022/06/18 13:10:37;;;;;;;7.45;2.03;;;;;;;;;;5016549;28;20025;-76
2022/06/18 13:13:11;;;;;;;11.18;2.30;;;;;;;;;;5019243;28;20029;-75
2022/06/18 13:15:42;;;;;;;22.73;2.05;;;;;;;;;;5020155;28;20542;-76
2022/06/18 13:18:19;;;;;;;12.18;1.98;;;;;;;;;;5019494;28;20168;-74
2022/06/18 13:20:49;;;;;;;12.70;2.05;;;;;;;;;;5020372;28;20088;-76
2022/06/18 13:29:27;;;;;;;7.70;2.15;;;;;;;;;;5019572;28;20455;-76
2022/06/18 13:32:03;;;;;;;17.80;2.58;;;;;;;;;;5019278;28;20422;-76
2022/06/18 13:34:37;;;;;;;12.77;2.20;;;;;;;;;;5019435;28;20030;-76
2022/06/18 13:37:25;;;;;;;14.13;2.50;;;;;;;;;;5019523;28;20021;-74
2022/06/18 13:40:05;;;;;;;13.35;2.13;;;;;;;;;;4990679;28;20046;-76
2022/06/18 13:43:06;;;;;;;8.98;2.13;;;;;;;;;;5019147;28;20038;-75
2022/06/18 13:45:43;;;;;;;13.60;2.40;;;;;;;;;;5018902;28;20058;-74
2022/06/18 13:48:18;;;;;;;12.73;2.60;;;;;;;;;;5019209;28;20048;-75
2022/06/18 13:50:45;;;;;;;15.85;2.47;;;;;;;;;;5019841;28;20018;-76
2022/06/18 13:53:22;;;;;;;10.68;2.00;;;;;;;;;;5020252;28;20068;-75
2022/06/18 13:55:48;;;;;;;7.57;1.95;;;;;;;;;;5021734;28;20030;-75
2022/06/18 13:58:23;;;;;;;14.15;2.42;;;;;;;;;;5024384;28;20080;-74
2022/06/18 14:00:49;;;;;;;13.23;2.28;;;;;;;;;;5022568;28;20049;-75
2022/06/18 14:03:24;;;;;;;12.20;2.63;;;;;;;;;;5021497;28;20056;-75
2022/06/18 14:06:03;;;;;;;11.02;2.20;;;;;;;;;;5024025;28;20022;-75
2022/06/18 14:08:33;;;;;;;11.52;2.95;;;;;;;;;;5022913;28;20026;-75
2022/06/18 14:11:05;;;;;;;10.68;2.15;;;;;;;;;;5020755;28;20030;-75
2022/06/18 14:13:32;;;;;;;12.05;2.67;;;;;;;;;;5019635;28;20109;-76
2022/06/18 14:16:04;;;;;;;15.23;2.20;;;;;;;;;;5018987;28;20053;-75
2022/06/18 14:18:31;;;;;;;12.52;2.50;;;;;;;;;;5016940;28;20033;-76
2022/06/18 14:21:09;;;;;;;15.68;2.40;;;;;;;;;;5018634;28;20361;-75
2022/06/18 14:23:40;;;;;;;12.23;2.10;;;;;;;;;;5017491;28;20462;-75
2022/06/18 14:26:18;;;;;;;9.77;2.10;;;;;;;;;;5019061;28;20026;-76
2022/06/18 14:28:55;;;;;;;14.35;2.72;;;;;;;;;;5019443;28;20497;-75
2022/06/18 14:31:24;;;;;;;12.32;2.50;;;;;;;;;;5018949;28;20057;-76
2022/06/18 14:34:00;;;;;;;10.65;2.20;;;;;;;;;;5018619;28;20041;-76
2022/06/18 14:36:34;;;;;;;15.13;2.47;;;;;;;;;;5018651;28;20030;-76
2022/06/18 14:39:01;;;;;;;12.90;2.65;;;;;;;;;;5017269;28;20116;-75
2022/06/18 14:41:37;;;;;;;13.32;2.40;;;;;;;;;;5018351;28;20120;-76
2022/06/18 14:44:44;;;;;;;13.52;2.45;;;;;;;;;;5018248;28;20030;-76
2022/06/18 14:47:28;;;;;;;17.08;2.60;;;;;;;;;;5017809;28;20036;-76
2022/06/18 14:50:21;;;;;;;13.60;2.15;;;;;;;;;;5018122;28;20034;-77
2022/06/18 14:53:18;;;;;;;16.35;2.58;;;;;;;;;;5018462;28;20510;-76
2022/06/18 14:55:49;;;;;;;11.50;2.33;;;;;;;;;;5018427;28;20069;-75
2022/06/18 14:58:55;;;;;;;12.73;2.10;;;;;;;;;;5016457;28;20022;-76
2022/06/18 15:01:43;;;;;;;11.77;2.40;;;;;;;;;;5016401;28;20025;-75
2022/06/18 15:04:12;;;;;;;16.73;2.50;;;;;;;;;;5017801;28;20203;-76
2022/06/18 15:06:38;;;;;;;11.20;2.28;;;;;;;;;;5017617;28;20041;-74
2022/06/18 15:09:05;;;;;;;12.32;2.60;;;;;;;;;;5017542;28;20383;-75
2022/06/18 15:11:31;;;;;;;14.13;2.22;;;;;;;;;;5017547;28;20099;-76
2022/06/18 15:13:59;;;;;;;13.10;2.20;;;;;;;;;;5017466;28;20471;-76
2022/06/18 15:16:27;;;;;;;20.13;2.75;;;;;;;;;;5017646;28;20096;-75
2022/06/18 15:24:15;;;;;;;10.07;2.42;;;;;;;;;;5019753;28;20182;-75
2022/06/18 15:26:44;;;;;;;12.43;2.22;;;;;;;;;;5017774;28;20036;-75
2022/06/18 15:29:22;;;;;;;15.85;2.25;;;;;;;;;;5019934;28;20026;-75
2022/06/18 15:32:07;;;;;;;13.35;2.50;;;;;;;;;;5019298;28;20040;-76
2022/06/18 15:34:32;;;;;;;13.25;2.70;;;;;;;;;;5019070;28;20064;-76
2022/06/18 15:37:13;;;;;;;9.07;2.10;;;;;;;;;;5020362;28;20030;-76
2022/06/18 15:39:56;;;;;;;13.60;2.58;;;;;;;;;;5020212;28;20487;-75